sensor_id;sensor_type;location;lat;lon;timestamp;pressure;altitude;pressure_sealevel;temperature;humidity
68793;BME280;55778;54.346;10.210;2022-10-16T00:00:38;100461.94;;;12.51;100.00
68793;BME280;55778;54.346;10.210;2022-10-16T00:03:04;100448.75;;;12.47;100.00
68793;BME280;55778;54.346;10.210;2022-10-16T00:05:30;100454.06;;;12.48;100.00
68793;BME280;55778;54.346;10.210;2022-10-16T00:07:56;100461.91;;;12.43;100.00
68793;BME280;55778;54.346;10.210;2022-10-16T00:10:24;100469.97;;;12.45;100.00
68793;BME280;55778;54.346;10.210;2022-10-16T00:12:54;100462.75;;;12.44;100.00
68793;BME280;55778;54.346;10.210;2022-10-16T00:15:21;100471.66;;;12.46;100.00
68793;BME280;55778;54.346;10.210;2022-10-16T00:17:47;100471.97;;;12.43;100.00
68793;BME280;55778;54.346;10.210;2022-10-16T00:20:14;100473.19;;;12.40;100.00
68793;BME280;55778;54.346;10.210;2022-10-16T00:22:48;100481.38;;;12.40;100.00
68793;BME280;55778;54.346;10.210;2022-10-16T00:25:13;100472.81;;;12.35;100.00
68793;BME280;55778;54.346;10.210;2022-10-16T00:27:39;100478.97;;;12.37;100.00
68793;BME280;55778;54.346;10.210;2022-10-16T00:30:10;100484.59;;;12.36;100.00
68793;BME280;55778;54.346;10.210;2022-10-16T00:32:35;100478.44;;;12.34;100.00
68793;BME280;55778;54.346;10.210;2022-10-16T00:35:04;100481.50;;;12.31;100.00
68793;BME280;55778;54.346;10.210;2022-10-16T00:37:57;100477.38;;;12.27;100.00
68793;BME280;55778;54.346;10.210;2022-10-16T00:40:39;100479.94;;;12.28;100.00
68793;BME280;55778;54.346;10.210;2022-10-16T00:46:18;100486.91;;;12.23;100.00
68793;BME280;55778;54.346;10.210;2022-10-16T00:49:10;100474.22;;;12.13;100.00
68793;BME280;55778;54.346;10.210;2022-10-16T00:51:54;100481.25;;;12.16;100.00
68793;BME280;55778;54.346;10.210;2022-10-16T00:54:54;100484.47;;;12.12;100.00
68793;BME280;55778;54.346;10.210;2022-10-16T00:57:25;100482.38;;;12.05;100.00
68793;BME280;55778;54.346;10.210;2022-10-16T01:00:14;100491.16;;;12.17;100.00
68793;BME280;55778;54.346;10.210;2022-10-16T01:02:52;100498.81;;;12.13;100.00
68793;BME280;55778;54.346;10.210;2022-10-16T01:05:30;100503.44;;;12.13;100.00
68793;BME280;55778;54.346;10.210;2022-10-16T01:11:41;100500.88;;;12.12;100.00
68793;BME280;55778;54.346;10.210;2022-10-16T01:20:33;100506.00;;;12.15;99.76
68793;BME280;55778;54.346;10.210;2022-10-16T01:27:14;100510.81;;;12.21;99.36
68793;BME280;55778;54.346;10.210;2022-10-16T01:36:51;100508.59;;;12.24;99.75
68793;BME280;55778;54.346;10.210;2022-10-16T01:39:47;100512.03;;;12.26;99.30
68793;BME280;55778;54.346;10.210;2022-10-16T01:43:04;100514.94;;;12.25;99.77
68793;BME280;55778;54.346;10.210;2022-10-16T01:49:13;100501.44;;;12.23;99.83
68793;BME280;55778;54.346;10.210;2022-10-16T01:53:12;100497.84;;;12.23;99.26
68793;BME280;55778;54.346;10.210;2022-10-16T01:59:38;100502.97;;;12.26;99.78
68793;BME280;55778;54.346;10.210;2022-10-16T02:02:43;100507.59;;;12.25;99.33
68793;BME280;55778;54.346;10.210;2022-10-16T02:09:59;100496.13;;;12.22;99.53
68793;BME280;55778;54.346;10.210;2022-10-16T02:16:15;100510.50;;;12.24;99.14
68793;BME280;55778;54.346;10.210;2022-10-16T02:19:20;100500.56;;;12.23;99.50
68793;BME280;55778;54.346;10.210;2022-10-16T02:22:03;100498.69;;;12.23;99.55
68793;BME280;55778;54.346;10.210;2022-10-16T02:29:04;100502.63;;;12.21;99.22
68793;BME280;55778;54.346;10.210;2022-10-16T02:32:39;100496.78;;;12.16;100.00
68793;BME280;55778;54.346;10.210;2022-10-16T02:35:29;100499.50;;;12.16;99.93
68793;BME280;55778;54.346;10.210;2022-10-16T02:38:37;100492.50;;;12.13;99.55
68793;BME280;55778;54.346;10.210;2022-10-16T02:45:50;100512.47;;;12.13;99.79
68793;BME280;55778;54.346;10.210;2022-10-16T02:52:09;100511.31;;;12.16;99.21
68793;BME280;55778;54.346;10.210;2022-10-16T02:54:54;100510.59;;;12.14;99.08
68793;BME280;55778;54.346;10.210;2022-10-16T02:57:29;100502.56;;;12.13;99.08
68793;BME280;55778;54.346;10.210;2022-10-16T03:00:37;100499.47;;;12.07;98.72
68793;BME280;55778;54.346;10.210;2022-10-16T03:06:42;100501.13;;;12.00;99.29
68793;BME280;55778;54.346;10.210;2022-10-16T03:09:17;100506.41;;;12.02;98.71
68793;BME280;55778;54.346;10.210;2022-10-16T03:12:13;100498.88;;;11.96;98.67
68793;BME280;55778;54.346;10.210;2022-10-16T03:14:59;100504.34;;;11.96;98.56
68793;BME280;55778;54.346;10.210;2022-10-16T03:17:41;100500.94;;;11.94;98.93
68793;BME280;55778;54.346;10.210;2022-10-16T03:20:33;100507.72;;;11.90;98.86
68793;BME280;55778;54.346;10.210;2022-10-16T03:23:30;100496.94;;;11.88;98.40
68793;BME280;55778;54.346;10.210;2022-10-16T03:26:11;100495.72;;;11.83;98.63
68793;BME280;55778;54.346;10.210;2022-10-16T03:28:41;100507.50;;;11.83;98.27
68793;BME280;55778;54.346;10.210;2022-10-16T03:31:24;100510.09;;;11.85;98.17
68793;BME280;55778;54.346;10.210;2022-10-16T03:34:27;100497.22;;;11.77;98.15
68793;BME280;55778;54.346;10.210;2022-10-16T03:36:53;100499.97;;;11.77;97.93
68793;BME280;55778;54.346;10.210;2022-10-16T03:39:35;100500.13;;;11.76;97.75
68793;BME280;55778;54.346;10.210;2022-10-16T03:42:29;100501.97;;;11.75;97.92
68793;BME280;55778;54.346;10.210;2022-10-16T03:45:00;100508.31;;;11.76;97.44
68793;BME280;55778;54.346;10.210;2022-10-16T03:53:43;100514.72;;;11.67;97.28
68793;BME280;55778;54.346;10.210;2022-10-16T03:56:20;100521.03;;;11.67;97.23
68793;BME280;55778;54.346;10.210;2022-10-16T04:02:17;100522.34;;;11.63;96.88
68793;BME280;55778;54.346;10.210;2022-10-16T04:05:21;100519.06;;;11.60;96.95
68793;BME280;55778;54.346;10.210;2022-10-16T04:08:02;100524.84;;;11.57;96.92
68793;BME280;55778;54.346;10.210;2022-10-16T04:10:49;100524.84;;;11.57;96.76
68793;BME280;55778;54.346;10.210;2022-10-16T04:13:54;100529.28;;;11.58;96.19
68793;BME280;55778;54.346;10.210;2022-10-16T04:16:36;100531.25;;;11.65;96.43
68793;BME280;55778;54.346;10.210;2022-10-16T04:19:22;100536.00;;;11.63;95.98
68793;BME280;55778;54.346;10.210;2022-10-16T04:22:08;100537.16;;;11.61;96.07
68793;BME280;55778;54.346;10.210;2022-10-16T04:24:36;100543.63;;;11.60;95.63
68793;BME280;55778;54.346;10.210;2022-10-16T04:27:10;100537.47;;;11.58;95.88
68793;BME280;55778;54.346;10.210;2022-10-16T04:29:44;100542.38;;;11.54;95.83
68793;BME280;55778;54.346;10.210;2022-10-16T04:32:32;100545.09;;;11.54;95.54
68793;BME280;55778;54.346;10.210;2022-10-16T04:35:12;100543.56;;;11.52;96.05
68793;BME280;55778;54.346;10.210;2022-10-16T04:38:06;100559.78;;;11.53;95.56
68793;BME280;55778;54.346;10.210;2022-10-16T04:40:55;100552.06;;;11.49;96.03
68793;BME280;55778;54.346;10.210;2022-10-16T04:43:34;100547.06;;;11.44;95.90
68793;BME280;55778;54.346;10.210;2022-10-16T04:46:00;100559.06;;;11.51;95.88
68793;BME280;55778;54.346;10.210;2022-10-16T04:48:39;100553.75;;;11.50;95.86
68793;BME280;55778;54.346;10.210;2022-10-16T04:51:15;100556.47;;;11.50;95.45
68793;BME280;55778;54.346;10.210;2022-10-16T04:53:46;100557.03;;;11.53;95.44
68793;BME280;55778;54.346;10.210;2022-10-16T04:56:17;100570.78;;;11.61;95.41
68793;BME280;55778;54.346;10.210;2022-10-16T04:58:56;100553.25;;;11.64;94.54
68793;BME280;55778;54.346;10.210;2022-10-16T05:01:42;100565.03;;;11.64;94.98
68793;BME280;55778;54.346;10.210;2022-10-16T05:04:21;100572.59;;;11.70;94.43
68793;BME280;55778;54.346;10.210;2022-10-16T05:06:52;100571.56;;;11.71;94.39
68793;BME280;55778;54.346;10.210;2022-10-16T05:09:21;100578.72;;;11.72;94.40
68793;BME280;55778;54.346;10.210;2022-10-16T05:11:51;100563.13;;;11.65;94.19
68793;BME280;55778;54.346;10.210;2022-10-16T05:14:29;100577.34;;;11.68;94.54
68793;BME280;55778;54.346;10.210;2022-10-16T05:17:02;100574.78;;;11.67;94.22
68793;BME280;55778;54.346;10.210;2022-10-16T05:19:36;100585.38;;;11.70;93.94
68793;BME280;55778;54.346;10.210;2022-10-16T05:22:06;100586.75;;;11.74;94.35
68793;BME280;55778;54.346;10.210;2022-10-16T05:24:42;100575.16;;;11.72;94.14
68793;BME280;55778;54.346;10.210;2022-10-16T05:27:14;100578.56;;;11.74;93.92
68793;BME280;55778;54.346;10.210;2022-10-16T05:29:55;100579.66;;;11.81;93.48
68793;BME280;55778;54.346;10.210;2022-10-16T05:32:39;100587.69;;;11.82;93.63
68793;BME280;55778;54.346;10.210;2022-10-16T05:35:19;100592.00;;;11.85;93.95
68793;BME280;55778;54.346;10.210;2022-10-16T05:37:54;100590.72;;;11.79;93.71
68793;BME280;55778;54.346;10.210;2022-10-16T05:40:23;100588.88;;;11.80;93.43
68793;BME280;55778;54.346;10.210;2022-10-16T05:42:54;100605.66;;;11.85;93.93
68793;BME280;55778;54.346;10.210;2022-10-16T05:45:22;100606.63;;;11.84;93.89
68793;BME280;55778;54.346;10.210;2022-10-16T05:47:58;100608.06;;;11.88;92.81
68793;BME280;55778;54.346;10.210;2022-10-16T05:50:39;100614.34;;;11.88;92.61
68793;BME280;55778;54.346;10.210;2022-10-16T05:53:12;100621.56;;;11.89;92.72
68793;BME280;55778;54.346;10.210;2022-10-16T05:55:40;100613.22;;;11.91;92.38
68793;BME280;55778;54.346;10.210;2022-10-16T05:58:11;100617.78;;;11.90;92.08
68793;BME280;55778;54.346;10.210;2022-10-16T06:00:41;100616.63;;;11.93;91.89
68793;BME280;55778;54.346;10.210;2022-10-16T06:03:12;100619.34;;;11.93;92.05
68793;BME280;55778;54.346;10.210;2022-10-16T06:05:47;100622.78;;;11.95;92.27
68793;BME280;55778;54.346;10.210;2022-10-16T06:08:25;100633.25;;;11.99;92.03
68793;BME280;55778;54.346;10.210;2022-10-16T06:11:11;100627.47;;;12.02;91.77
68793;BME280;55778;54.346;10.210;2022-10-16T06:13:37;100627.94;;;11.98;91.55
68793;BME280;55778;54.346;10.210;2022-10-16T06:16:09;100624.19;;;11.99;91.28
68793;BME280;55778;54.346;10.210;2022-10-16T06:18:45;100622.56;;;12.06;90.85
68793;BME280;55778;54.346;10.210;2022-10-16T06:21:21;100623.78;;;12.12;91.04
68793;BME280;55778;54.346;10.210;2022-10-16T06:23:55;100621.38;;;12.08;90.37
68793;BME280;55778;54.346;10.210;2022-10-16T06:26:23;100620.81;;;12.05;91.02
68793;BME280;55778;54.346;10.210;2022-10-16T06:28:59;100625.47;;;12.13;90.33
68793;BME280;55778;54.346;10.210;2022-10-16T06:31:25;100612.47;;;12.06;90.72
68793;BME280;55778;54.346;10.210;2022-10-16T06:33:53;100626.34;;;12.13;89.68
68793;BME280;55778;54.346;10.210;2022-10-16T06:36:24;100631.53;;;12.24;89.85
68793;BME280;55778;54.346;10.210;2022-10-16T06:38:50;100631.22;;;12.27;89.22
68793;BME280;55778;54.346;10.210;2022-10-16T06:41:24;100631.78;;;12.31;89.00
68793;BME280;55778;54.346;10.210;2022-10-16T06:43:50;100638.53;;;12.44;88.97
68793;BME280;55778;54.346;10.210;2022-10-16T06:46:22;100632.13;;;12.61;88.49
68793;BME280;55778;54.346;10.210;2022-10-16T06:48:52;100638.38;;;12.71;87.86
68793;BME280;55778;54.346;10.210;2022-10-16T06:51:24;100639.75;;;12.75;87.46
68793;BME280;55778;54.346;10.210;2022-10-16T06:53:54;100647.56;;;12.70;88.11
68793;BME280;55778;54.346;10.210;2022-10-16T06:56:26;100657.44;;;12.63;87.88
68793;BME280;55778;54.346;10.210;2022-10-16T06:58:59;100658.47;;;12.62;88.52
68793;BME280;55778;54.346;10.210;2022-10-16T07:01:27;100666.06;;;12.51;88.10
68793;BME280;55778;54.346;10.210;2022-10-16T07:04:02;100662.66;;;12.49;88.50
68793;BME280;55778;54.346;10.210;2022-10-16T07:06:32;100662.66;;;12.49;88.71
68793;BME280;55778;54.346;10.210;2022-10-16T07:09:03;100665.69;;;12.46;88.34
68793;BME280;55778;54.346;10.210;2022-10-16T07:11:36;100660.06;;;12.47;88.41
68793;BME280;55778;54.346;10.210;2022-10-16T07:14:15;100665.91;;;12.52;88.36
68793;BME280;55778;54.346;10.210;2022-10-16T07:16:49;100669.88;;;12.58;88.39
68793;BME280;55778;54.346;10.210;2022-10-16T07:19:15;100670.78;;;12.66;88.27
68793;BME280;55778;54.346;10.210;2022-10-16T07:21:59;100675.94;;;12.69;88.27
68793;BME280;55778;54.346;10.210;2022-10-16T07:24:24;100691.38;;;12.78;88.20
68793;BME280;55778;54.346;10.210;2022-10-16T07:26:52;100693.81;;;12.89;87.67
68793;BME280;55778;54.346;10.210;2022-10-16T07:29:20;100700.38;;;12.96;87.65
68793;BME280;55778;54.346;10.210;2022-10-16T07:31:46;100703.66;;;13.00;87.58
68793;BME280;55778;54.346;10.210;2022-10-16T07:34:17;100702.50;;;13.02;87.38
68793;BME280;55778;54.346;10.210;2022-10-16T07:36:42;100703.94;;;12.97;87.49
68793;BME280;55778;54.346;10.210;2022-10-16T07:39:13;100710.00;;;13.00;87.21
68793;BME280;55778;54.346;10.210;2022-10-16T07:41:45;100713.13;;;13.05;87.20
68793;BME280;55778;54.346;10.210;2022-10-16T07:44:10;100687.84;;;13.11;86.89
68793;BME280;55778;54.346;10.210;2022-10-16T07:46:36;100687.34;;;13.16;87.11
68793;BME280;55778;54.346;10.210;2022-10-16T07:49:06;100690.41;;;13.13;86.58
68793;BME280;55778;54.346;10.210;2022-10-16T07:51:34;100692.03;;;13.31;85.96
68793;BME280;55778;54.346;10.210;2022-10-16T07:53:59;100693.88;;;13.80;84.71
68793;BME280;55778;54.346;10.210;2022-10-16T07:56:27;100697.88;;;14.10;82.84
68793;BME280;55778;54.346;10.210;2022-10-16T07:58:55;100694.84;;;14.37;81.93
68793;BME280;55778;54.346;10.210;2022-10-16T08:01:24;100701.84;;;14.56;80.52
68793;BME280;55778;54.346;10.210;2022-10-16T08:03:51;100695.81;;;14.60;80.15
68793;BME280;55778;54.346;10.210;2022-10-16T08:06:18;100687.88;;;14.97;79.38
68793;BME280;55778;54.346;10.210;2022-10-16T08:08:43;100688.34;;;15.09;78.76
68793;BME280;55778;54.346;10.210;2022-10-16T08:11:09;100689.44;;;14.92;79.06
68793;BME280;55778;54.346;10.210;2022-10-16T08:13:34;100687.88;;;14.97;78.91
68793;BME280;55778;54.346;10.210;2022-10-16T08:16:00;100692.47;;;15.05;78.44
68793;BME280;55778;54.346;10.210;2022-10-16T08:18:28;100693.88;;;15.47;77.55
68793;BME280;55778;54.346;10.210;2022-10-16T08:20:59;100702.72;;;15.65;76.16
68793;BME280;55778;54.346;10.210;2022-10-16T08:23:26;100697.53;;;16.01;75.21
68793;BME280;55778;54.346;10.210;2022-10-16T08:25:55;100714.09;;;16.38;73.95
68793;BME280;55778;54.346;10.210;2022-10-16T08:28:21;100702.16;;;16.23;73.98
68793;BME280;55778;54.346;10.210;2022-10-16T08:30:47;100701.53;;;16.21;73.29
68793;BME280;55778;54.346;10.210;2022-10-16T08:33:13;100717.38;;;16.34;74.05
68793;BME280;55778;54.346;10.210;2022-10-16T08:35:38;100706.50;;;16.48;72.56
68793;BME280;55778;54.346;10.210;2022-10-16T08:38:05;100713.72;;;16.19;73.86
68793;BME280;55778;54.346;10.210;2022-10-16T08:40:33;100714.81;;;16.32;73.71
68793;BME280;55778;54.346;10.210;2022-10-16T08:48:52;100739.94;;;16.29;73.39
68793;BME280;55778;54.346;10.210;2022-10-16T08:51:29;100731.94;;;16.20;73.78
68793;BME280;55778;54.346;10.210;2022-10-16T08:53:58;100741.50;;;16.54;73.66
68793;BME280;55778;54.346;10.210;2022-10-16T08:56:25;100736.78;;;16.40;73.60
68793;BME280;55778;54.346;10.210;2022-10-16T08:58:51;100740.09;;;16.95;71.86
68793;BME280;55778;54.346;10.210;2022-10-16T09:01:19;100738.78;;;17.35;70.08
68793;BME280;55778;54.346;10.210;2022-10-16T09:08:45;100745.56;;;17.32;70.71
68793;BME280;55778;54.346;10.210;2022-10-16T09:16:33;100744.34;;;18.00;67.84
68793;BME280;55778;54.346;10.210;2022-10-16T09:19:09;100747.19;;;18.06;68.14
68793;BME280;55778;54.346;10.210;2022-10-16T09:21:44;100744.22;;;17.72;69.14
68793;BME280;55778;54.346;10.210;2022-10-16T09:24:18;100742.19;;;18.52;66.55
68793;BME280;55778;54.346;10.210;2022-10-16T09:26:45;100740.78;;;19.04;64.46
68793;BME280;55778;54.346;10.210;2022-10-16T09:29:12;100747.09;;;19.53;63.11
68793;BME280;55778;54.346;10.210;2022-10-16T09:31:38;100752.63;;;19.60;62.16
68793;BME280;55778;54.346;10.210;2022-10-16T09:34:05;100759.09;;;19.39;63.20
68793;BME280;55778;54.346;10.210;2022-10-16T09:36:39;100759.69;;;19.62;61.95
68793;BME280;55778;54.346;10.210;2022-10-16T09:39:08;100780.91;;;19.96;60.38
68793;BME280;55778;54.346;10.210;2022-10-16T09:41:37;100772.84;;;19.05;61.30
68793;BME280;55778;54.346;10.210;2022-10-16T09:44:14;100774.91;;;19.86;59.71
68793;BME280;55778;54.346;10.210;2022-10-16T09:46:41;100777.72;;;19.99;59.55
68793;BME280;55778;54.346;10.210;2022-10-16T09:49:24;100791.66;;;19.78;59.77
68793;BME280;55778;54.346;10.210;2022-10-16T09:51:51;100793.16;;;19.80;59.38
68793;BME280;55778;54.346;10.210;2022-10-16T09:54:27;100788.69;;;19.18;60.67
68793;BME280;55778;54.346;10.210;2022-10-16T09:57:04;100793.38;;;18.75;62.94
68793;BME280;55778;54.346;10.210;2022-10-16T09:59:31;100804.09;;;18.43;62.94
68793;BME280;55778;54.346;10.210;2022-10-16T10:02:01;100802.09;;;17.72;65.98
68793;BME280;55778;54.346;10.210;2022-10-16T10:04:38;100808.41;;;17.29;68.14
68793;BME280;55778;54.346;10.210;2022-10-16T10:07:04;100797.75;;;17.11;68.67
68793;BME280;55778;54.346;10.210;2022-10-16T10:09:39;100812.81;;;17.01;69.87
68793;BME280;55778;54.346;10.210;2022-10-16T10:12:06;100814.81;;;16.92;70.51
68793;BME280;55778;54.346;10.210;2022-10-16T10:14:45;100815.16;;;17.12;68.38
68793;BME280;55778;54.346;10.210;2022-10-16T10:17:18;100815.97;;;17.49;68.97
68793;BME280;55778;54.346;10.210;2022-10-16T10:19:55;100821.78;;;17.69;68.80
68793;BME280;55778;54.346;10.210;2022-10-16T10:36:49;100840.50;;;18.17;65.33
68793;BME280;55778;54.346;10.210;2022-10-16T11:00:49;100850.03;;;17.56;66.59
68793;BME280;55778;54.346;10.210;2022-10-16T11:04:10;100852.44;;;17.37;66.21
68793;BME280;55778;54.346;10.210;2022-10-16T11:06:47;100864.78;;;17.04;68.19
68793;BME280;55778;54.346;10.210;2022-10-16T11:09:19;100868.25;;;17.57;66.56
68793;BME280;55778;54.346;10.210;2022-10-16T11:12:02;100870.16;;;17.57;65.59
68793;BME280;55778;54.346;10.210;2022-10-16T11:14:35;100866.63;;;17.48;65.76
68793;BME280;55778;54.346;10.210;2022-10-16T11:23:53;100892.50;;;17.62;65.04
68793;BME280;55778;54.346;10.210;2022-10-16T11:30:27;100895.19;;;17.10;67.29
68793;BME280;55778;54.346;10.210;2022-10-16T11:33:29;100897.13;;;17.24;67.12
68793;BME280;55778;54.346;10.210;2022-10-16T11:49:43;100909.28;;;17.52;63.77
68793;BME280;55778;54.346;10.210;2022-10-16T11:55:54;100920.50;;;17.51;63.40
68793;BME280;55778;54.346;10.210;2022-10-16T11:58:28;100923.88;;;17.38;63.38
68793;BME280;55778;54.346;10.210;2022-10-16T12:06:39;100933.22;;;17.89;62.41
68793;BME280;55778;54.346;10.210;2022-10-16T12:09:05;100937.13;;;17.95;63.46
68793;BME280;55778;54.346;10.210;2022-10-16T12:11:39;100945.84;;;17.83;60.63
68793;BME280;55778;54.346;10.210;2022-10-16T12:19:19;100948.31;;;17.19;64.36
68793;BME280;55778;54.346;10.210;2022-10-16T12:21:45;100959.81;;;17.22;65.84
68793;BME280;55778;54.346;10.210;2022-10-16T12:24:42;100967.06;;;17.15;65.22
68793;BME280;55778;54.346;10.210;2022-10-16T12:27:28;100970.19;;;17.12;64.13
68793;BME280;55778;54.346;10.210;2022-10-16T12:30:06;100980.28;;;16.97;64.64
68793;BME280;55778;54.346;10.210;2022-10-16T12:32:42;100966.97;;;16.48;64.80
68793;BME280;55778;54.346;10.210;2022-10-16T12:35:22;100978.84;;;16.48;65.00
68793;BME280;55778;54.346;10.210;2022-10-16T12:38:16;100976.56;;;16.52;65.48
68793;BME280;55778;54.346;10.210;2022-10-16T12:40:53;100979.69;;;16.41;65.39
68793;BME280;55778;54.346;10.210;2022-10-16T12:46:04;100993.94;;;16.52;66.45
68793;BME280;55778;54.346;10.210;2022-10-16T12:48:33;100987.31;;;16.69;65.29
68793;BME280;55778;54.346;10.210;2022-10-16T12:51:24;100999.47;;;16.83;65.87
68793;BME280;55778;54.346;10.210;2022-10-16T13:11:50;101030.25;;;16.48;62.07
68793;BME280;55778;54.346;10.210;2022-10-16T13:15:25;101028.53;;;16.31;62.33
68793;BME280;55778;54.346;10.210;2022-10-16T13:18:05;101035.50;;;16.65;62.54
68793;BME280;55778;54.346;10.210;2022-10-16T13:23:56;101037.66;;;16.39;62.20
68793;BME280;55778;54.346;10.210;2022-10-16T13:26:44;101049.84;;;16.45;62.35
68793;BME280;55778;54.346;10.210;2022-10-16T13:29:12;101053.28;;;16.31;63.70
68793;BME280;55778;54.346;10.210;2022-10-16T13:31:38;101053.63;;;16.28;64.02
68793;BME280;55778;54.346;10.210;2022-10-16T13:34:05;101059.16;;;16.44;63.45
68793;BME280;55778;54.346;10.210;2022-10-16T13:36:43;101067.59;;;16.18;64.28
68793;BME280;55778;54.346;10.210;2022-10-16T13:39:24;101074.28;;;16.16;65.90
68793;BME280;55778;54.346;10.210;2022-10-16T13:44:45;101094.22;;;15.93;66.30
68793;BME280;55778;54.346;10.210;2022-10-16T13:49:46;101098.88;;;16.01;64.64
68793;BME280;55778;54.346;10.210;2022-10-16T13:52:18;101094.56;;;16.15;64.16
68793;BME280;55778;54.346;10.210;2022-10-16T13:54:44;101098.19;;;16.15;64.33
68793;BME280;55778;54.346;10.210;2022-10-16T13:57:14;101083.91;;;16.44;62.62
68793;BME280;55778;54.346;10.210;2022-10-16T13:59:40;101108.31;;;16.23;62.51
68793;BME280;55778;54.346;10.210;2022-10-16T14:02:29;101112.44;;;16.27;61.13
68793;BME280;55778;54.346;10.210;2022-10-16T14:04:55;101126.00;;;16.20;61.56
68793;BME280;55778;54.346;10.210;2022-10-16T14:07:32;101128.09;;;16.02;62.47
68793;BME280;55778;54.346;10.210;2022-10-16T14:10:05;101128.44;;;16.07;62.24
68793;BME280;55778;54.346;10.210;2022-10-16T14:12:32;101144.91;;;16.07;63.45
68793;BME280;55778;54.346;10.210;2022-10-16T14:14:58;101141.66;;;15.95;63.83
68793;BME280;55778;54.346;10.210;2022-10-16T14:17:27;101132.56;;;15.87;63.64
68793;BME280;55778;54.346;10.210;2022-10-16T14:19:56;101140.63;;;15.88;64.09
68793;BME280;55778;54.346;10.210;2022-10-16T14:22:39;101139.78;;;15.96;63.87
68793;BME280;55778;54.346;10.210;2022-10-16T14:25:25;101136.69;;;15.91;64.92
68793;BME280;55778;54.346;10.210;2022-10-16T14:30:31;101140.59;;;16.37;64.18
68793;BME280;55778;54.346;10.210;2022-10-16T14:33:06;101150.75;;;16.28;63.63
68793;BME280;55778;54.346;10.210;2022-10-16T14:37:59;101152.63;;;16.68;64.15
68793;BME280;55778;54.346;10.210;2022-10-16T14:40:33;101150.75;;;16.60;63.08
68793;BME280;55778;54.346;10.210;2022-10-16T14:43:01;101167.94;;;16.62;62.76
68793;BME280;55778;54.346;10.210;2022-10-16T14:45:30;101163.47;;;16.37;64.50
68793;BME280;55778;54.346;10.210;2022-10-16T14:47:59;101171.56;;;16.39;65.39
68793;BME280;55778;54.346;10.210;2022-10-16T14:50:25;101184.09;;;16.01;66.22
68793;BME280;55778;54.346;10.210;2022-10-16T14:52:51;101189.97;;;16.06;65.48
68793;BME280;55778;54.346;10.210;2022-10-16T14:55:17;101196.63;;;15.87;67.10
68793;BME280;55778;54.346;10.210;2022-10-16T14:57:43;101187.16;;;15.74;67.60
68793;BME280;55778;54.346;10.210;2022-10-16T15:00:22;101197.47;;;15.72;68.87
68793;BME280;55778;54.346;10.210;2022-10-16T15:02:49;101203.94;;;15.55;69.32
68793;BME280;55778;54.346;10.210;2022-10-16T15:05:21;101204.84;;;15.30;70.57
68793;BME280;55778;54.346;10.210;2022-10-16T15:07:49;101214.06;;;15.21;71.10
68793;BME280;55778;54.346;10.210;2022-10-16T15:10:16;101219.38;;;15.22;71.15
68793;BME280;55778;54.346;10.210;2022-10-16T15:12:42;101223.31;;;15.20;71.63
68793;BME280;55778;54.346;10.210;2022-10-16T15:17:59;101228.75;;;15.04;73.14
68793;BME280;55778;54.346;10.210;2022-10-16T15:20:27;101230.63;;;15.03;72.75
68793;BME280;55778;54.346;10.210;2022-10-16T15:22:53;101236.44;;;15.00;72.94
68793;BME280;55778;54.346;10.210;2022-10-16T15:25:38;101229.31;;;14.90;73.32
68793;BME280;55778;54.346;10.210;2022-10-16T15:28:08;101236.50;;;14.83;72.18
68793;BME280;55778;54.346;10.210;2022-10-16T15:30:34;101241.91;;;14.75;72.42
68793;BME280;55778;54.346;10.210;2022-10-16T15:32:59;101248.59;;;14.72;72.92
68793;BME280;55778;54.346;10.210;2022-10-16T15:35:25;101247.88;;;14.70;71.93
68793;BME280;55778;54.346;10.210;2022-10-16T15:37:50;101255.78;;;14.73;71.52
68793;BME280;55778;54.346;10.210;2022-10-16T15:40:17;101247.28;;;14.59;70.82
68793;BME280;55778;54.346;10.210;2022-10-16T15:42:43;101252.69;;;14.68;70.78
68793;BME280;55778;54.346;10.210;2022-10-16T15:45:10;101256.63;;;14.48;70.56
68793;BME280;55778;54.346;10.210;2022-10-16T15:47:36;101265.59;;;14.33;71.71
68793;BME280;55778;54.346;10.210;2022-10-16T15:50:01;101267.28;;;14.51;71.29
68793;BME280;55778;54.346;10.210;2022-10-16T15:52:26;101264.81;;;14.40;71.50
68793;BME280;55778;54.346;10.210;2022-10-16T15:54:54;101273.72;;;14.25;72.46
68793;BME280;55778;54.346;10.210;2022-10-16T15:57:19;101282.50;;;14.46;71.42
68793;BME280;55778;54.346;10.210;2022-10-16T15:59:45;101283.72;;;14.16;72.67
68793;BME280;55778;54.346;10.210;2022-10-16T16:02:10;101287.19;;;14.18;72.95
68793;BME280;55778;54.346;10.210;2022-10-16T16:04:38;101286.78;;;14.13;72.96
68793;BME280;55778;54.346;10.210;2022-10-16T16:07:04;101297.13;;;14.01;73.95
68793;BME280;55778;54.346;10.210;2022-10-16T16:09:32;101298.09;;;14.00;73.72
68793;BME280;55778;54.346;10.210;2022-10-16T16:11:58;101302.13;;;13.88;74.78
68793;BME280;55778;54.346;10.210;2022-10-16T16:14:25;101305.31;;;13.84;74.65
68793;BME280;55778;54.346;10.210;2022-10-16T16:16:54;101302.47;;;13.76;74.68
68793;BME280;55778;54.346;10.210;2022-10-16T16:19:19;101317.78;;;13.69;75.40
68793;BME280;55778;54.346;10.210;2022-10-16T16:21:46;101327.44;;;13.63;75.61
68793;BME280;55778;54.346;10.210;2022-10-16T16:24:12;101329.50;;;13.61;76.15
68793;BME280;55778;54.346;10.210;2022-10-16T16:26:37;101336.84;;;13.61;75.93
68793;BME280;55778;54.346;10.210;2022-10-16T16:29:05;101342.25;;;13.53;76.38